WEATHER DATA

YESTERDAY
Time Temp. Dewp. Hum. Bar.
00:07 2.3 -7 47 1030.6
00:17 2.3 -6.7 48 1030.6
00:27 2.3 -6.7 48 1030.9
00:38 2.3 -6.7 48 1030.8
00:47 2.2 -6.8 48 1031
00:57 2.2 -7.3 46 1030.9
01:08 2 -7.5 46 1030.9
01:18 1.9 -7.5 46 1030.8
01:27 1.9 -7.8 45 1030.6
01:32 2 -7.5 46 1030.5
01:43 2.1 -7.4 46 1030.5
01:53 2.3 -7.7 44 1030.3
02:08 2.3 -7.2 46 1029.8
02:19 2.4 -7.1 46 1029.7
02:28 2.3 -7.2 46 1029.6
02:38 2.4 -7.4 45 1029.4
02:48 2.5 -7.3 45 1029.2
02:59 2.5 -7.3 45 1029.1
03:08 2.5 -7.6 44 1029.2
03:18 2.5 -7.8 43 1029.1
03:29 2.6 -7.7 43 1028.9
03:39 2.7 -7.7 43 1029
03:48 2.7 -7.9 42 1029
03:58 2.7 -8.2 41 1028.8
04:09 2.8 -8.1 41 1028.8
04:14 2.8 -8.1 41 1028.8
04:28 2.9 -7.8 42 1028.9
04:39 2.8 -8.1 41 1028.8
04:49 2.8 -7.6 43 1028.8
04:59 2.8 -7.9 42 1028.8
05:09 2.9 -7.5 43 1028.8
05:19 2.9 -7.5 43 1028.7
05:29 2.8 -7.9 42 1028.4
05:39 2.8 -7.3 44 1028.3
05:49 2.8 -7.6 43 1028.3
05:59 2.9 -7.5 43 1028.4
06:09 2.9 -7.5 43 1028.4
06:19 2.9 -7.8 42 1028.5
06:30 2.9 -7.5 43 1028.7
06:40 2.8 -7.9 42 1028.5
06:49 3 -7.7 42 1028.4
07:00 3.1 -7.9 41 1028.5
07:10 3.3 -7.7 41 1028.7
07:20 3.5 -7.6 41 1028.9
07:30 3.8 -7.3 41 1028.9
07:40 4.1 -7.1 41 1029
07:50 4.4 -6.6 42 1029.4
08:00 4.7 -6.6 41 1029.5
08:11 5 -6.1 42 1029.8
08:21 5.3 -6.4 40 1029.7
08:31 5.6 -7.4 36 1029.9
08:41 5.9 -7.1 36 1029.8
08:51 6.2 -8.2 32 1029.7
09:01 6.5 -9.1 29 1030.2
09:08 6.6 -7.6 33 1030.4
09:17 6.8 -7.1 34 1030.4
09:31 7.1 -7.2 33 1030.9
09:41 7.3 -6.3 35 1031
09:51 7.4 -6.3 35 1030.9
10:01 7.8 -5.3 37 1030.8
10:11 8.1 -4.7 38 1030.8
10:21 8.3 -4.6 38 1030.6
10:32 8.6 -4 39 1030.6
10:37 8.7 -4.3 38 1030.6
10:47 8.8 -4.2 38 1030.6
10:57 9 -4.7 36 1030.6
11:07 9.3 -4.4 36 1030.8
11:18 9.6 -4.2 36 1030.6
11:28 9.9 -3.6 37 1030.6
11:37 10.1 -3.5 37 1030.4
11:47 10.3 -3.3 37 1030.3
11:57 10.4 -3.6 36 1030.2
12:07 10.6 -4.1 34 1029.8
12:18 10.8 -3.2 36 1029.7
12:27 11 -3.1 36 1029.5
12:37 11.1 -3 36 1029.1
12:47 11.3 -3.5 34 1029.1
12:58 11.5 -2.7 36 1028.9
13:08 11.6 -3.3 34 1028.9
13:17 11.8 -3.5 33 1028.8
13:27 12 -3.3 33 1028.7
13:37 12.1 -2.9 34 1028.7
13:47 12.3 -3.1 33 1028.4
13:57 12.4 -2.7 34 1028.2
14:08 12.5 -1.6 37 1028.2
14:18 12.6 -0.3 41 1028.2
14:28 12.6 0.7 44 1028
14:39 12.5 1.2 46 1027.8
14:48 12.3 1.3 47 1027.7
15:02 12.3 0.1 43 1027.7
15:12 12.2 0.9 46 1027.5
15:23 12.1 0.5 45 1027.6
15:33 12.1 0.8 46 1027.6
15:43 12.1 0.2 44 1027.5
15:53 12.1 -0.7 41 1027.5
16:03 12.1 -0.7 41 1027.6
16:13 12 -1 40 1027.4
16:23 11.9 -0.8 41 1027.4
16:34 11.8 -1.5 39 1027.4
16:44 11.6 -1.1 41 1027.5
16:54 11.5 -1.4 40 1027.3
17:05 11.3 -1.6 40 1027
17:15 11.2 -2 39 1026.8
17:24 11.1 -1.5 41 1026.9
17:35 10.9 -1.3 42 1027.1
17:45 10.7 -0.9 44 1027
17:55 10.5 -0.8 45 1027.3
18:05 10.3 -1.2 44 1027.4
18:15 10.4 -1.2 44 1027.5
18:25 10.3 -0.7 46 1027.5
18:35 10 -0.4 48 1028
18:51 9.7 -0.4 49 1027.7
19:01 9.5 -0.3 50 1027.7
19:11 9.5 -1.4 46 1027.6
19:20 9.6 -1.5 45 1027.6
19:31 9.7 -2 43 1027.7
19:41 9.8 -1.9 43 1027.8
19:51 9.8 -2.5 41 1027.6
20:02 9.8 -2.2 42 1027.6
20:12 9.8 -1.9 43 1027.6
20:14 9.8 -2.2 42 1027.5
20:25 9.8 -2.2 42 1027.6
20:35 9.7 -2.6 41 1027.6
20:44 9.8 -2.8 40 1027.4
20:55 9.8 -2.5 41 1027.6
21:06 9.7 -3.2 39 1027.4
21:15 9.8 -3.4 38 1027.6
21:25 9.8 -3.4 38 1027.6
21:36 9.8 -3.4 38 1027.6
21:46 9.8 -3.1 39 1027.5
21:56 9.8 -2.8 40 1027.5
22:08 9.8 -2.5 41 1027.3
22:13 9.7 -2.3 42 1027.4
22:24 9.5 -2.2 43 1027.3
22:33 9.3 -2 44 1027.4
22:44 9.1 -0.9 49 1027.4
22:53 8.7 -0.5 52 1027.4
23:04 8.4 -0.5 53 1027.1
23:14 8.2 -0.7 53 1027.1
23:24 8.1 -1 52 1027
23:34 8 -1.1 52 1026.9
23:49 8 -1.1 52 1026.7

DAY STATISTIC

2020-02-23
TEMPERATURE
AVERAGE
7.5
HIGH
12.6
14:18
LOW
1.9
01:18
PRESSURE
AVERAGE
1028.7
HIGH
1031.0
00:47
LOW
1026.7
23:49
DEWPOINT
AVERAGE
-4.3
HIGH
1.3
14:48
LOW
-9.1
09:01
HUMIDITY
AVERAGE
42
HIGH
53
23:04
LOW
29
09:01
TEMPERATURE (°C)
LOW
1.9
HIGH
12.6
AVERAGE
7.5
PRESSURE (hpa)
LOW
1026.7
HIGH
1031.0
AVERAGE
1028.7
DEVICE